This is the latest recevied weather packets stored in our database for station/object YO3IEZ-WX. If no packets are shown the sender has not sent any weather packets the latest 10 day(s).
| Time | Temp. | Humidity | Pressure | Rain* | Wind** | Luminosity | Snow |
|---|---|---|---|---|---|---|---|
| 1777811449 | 13.89° C | 45% | 1010.8 hPa | 0 mm | - | 265 W/m² | - |
| 1777809649 | 13.89° C | 44% | 1011 hPa | 0 mm | - | 236 W/m² | - |
| 1777808752 | 14.44° C | 44% | 1011.1 hPa | 0 mm | - | 946 W/m² | - |
| 1777804249 | 13.33° C | 46% | 1011.9 hPa | 0 mm | - | 478 W/m² | - |
| 1777803354 | 12.78° C | 45% | 1012.1 hPa | 0 mm | - | 237 W/m² | - |
| 1777798856 | 12.22° C | 49% | 1012.5 hPa | 0 mm | - | 185 W/m² | - |
| 1777796149 | 12.78° C | 47% | 1012.6 hPa | 0 mm | - | 782 W/m² | - |
| 1777795253 | 12.22° C | 48% | 1012.7 hPa | 0 mm | - | 766 W/m² | - |
| 1777793451 | 12.22° C | 47% | 1012.6 hPa | 0 mm | - | 680 W/m² | - |
| 1777788956 | 10° C | 57% | 1012.4 hPa | 0 mm | - | 446 W/m² | - |
| 1777780855 | 6.11° C | 76% | 1011.9 hPa | 0 mm | - | 77 W/m² | - |
| 1777779951 | 5.56° C | 76% | 1011.8 hPa | 0 mm | - | 42 W/m² | - |
| 1777772749 | 6.11° C | 75% | 1011.3 hPa | 0 mm | - | 0 W/m² | - |
| 1777771845 | 6.11° C | 75% | 1011.4 hPa | 0 mm | - | 0 W/m² | - |
| 1777767347 | 6.67° C | 80% | 1011.5 hPa | 0 mm | - | 0 W/m² | - |
| 1777766461 | 6.67° C | 81% | 1011.5 hPa | 0 mm | - | 0 W/m² | - |
| 1777764651 | 6.67° C | 83% | 1011.7 hPa | 0 mm | - | 0 W/m² | - |
| 1777762847 | 7.22° C | 81% | 1011.8 hPa | 0 mm | - | 0 W/m² | - |
| 1777761947 | 7.22° C | 81% | 1011.9 hPa | 0 mm | - | 0 W/m² | - |
| 1777761047 | 7.78° C | 80% | 1011.9 hPa | 0 mm | - | 0 W/m² | - |
| 1777754755 | 8.33° C | 77% | 1012.3 hPa | 0 mm | - | 0 W/m² | - |
| 1777751148 | 8.33° C | 78% | 1012.5 hPa | 0 mm | - | 0 W/m² | - |
| 1777743953 | 8.89° C | 76% | 1011.5 hPa | 0 mm | - | 0 W/m² | - |
| 1777739459 | 11.67° C | 54% | 1010.9 hPa | 0 mm | - | 32 W/m² | - |
| 1777737650 | 11.67° C | 57% | 1011 hPa | 0 mm | - | 47 W/m² | - |
* Rain latest hour (hover to see other rain measurements)
** Current wind speed in m/s (hover to see current wind gust speed)